This is the latest recevied weather packets stored in our database for station/object K7YVO. If no packets are shown the sender has not sent any weather packets the latest 10 day(s).
| Time | Temp. | Humidity | Pressure | Rain* | Wind** | Luminosity | Snow |
|---|---|---|---|---|---|---|---|
| 1777565024 | 15.56° C | 57% | 1021 hPa | 0 mm | - | 74 W/m² | - |
| 1777564720 | 15° C | 57% | 1020.7 hPa | 0 mm | - | 74 W/m² | - |
| 1777564415 | 15° C | 58% | 1020.8 hPa | 0 mm | - | 73 W/m² | - |
| 1777564112 | 14.44° C | 58% | 1020.8 hPa | 0 mm | - | 72 W/m² | - |
| 1777563807 | 14.44° C | 58% | 1021 hPa | 0 mm | - | 68 W/m² | - |
| 1777563504 | 13.89° C | 57% | 1020.8 hPa | 0 mm | - | 65 W/m² | - |
| 1777563203 | 13.33° C | 58% | 1020.9 hPa | 0 mm | - | 58 W/m² | - |
| 1777562900 | 12.78° C | 60% | 1020.9 hPa | 0 mm | - | 53 W/m² | - |
| 1777562596 | 12.78° C | 63% | 1020.9 hPa | 0 mm | - | 51 W/m² | - |
| 1777562295 | 12.22° C | 64% | 1021 hPa | 0 mm | - | 46 W/m² | - |
| 1777561992 | 12.22° C | 65% | 1021 hPa | 0 mm | - | 47 W/m² | - |
| 1777561689 | 11.67° C | 65% | 1021 hPa | 0 mm | - | 46 W/m² | - |
| 1777561384 | 11.67° C | 66% | 1021 hPa | 0 mm | - | 45 W/m² | - |
| 1777561080 | 11.67° C | 66% | 1021.1 hPa | 0 mm | - | 43 W/m² | - |
| 1777560775 | 11.67° C | 66% | 1021.1 hPa | 0 mm | - | 42 W/m² | - |
| 1777560473 | 11.11° C | 67% | 1021.3 hPa | 0 mm | - | 41 W/m² | - |
| 1777560171 | 11.11° C | 68% | 1021.2 hPa | 0 mm | - | 41 W/m² | - |
| 1777559867 | 11.11° C | 68% | 1021.1 hPa | 0 mm | - | 42 W/m² | - |
| 1777559562 | 11.11° C | 67% | 1021 hPa | 0 mm | - | 42 W/m² | - |
| 1777559260 | 12.22° C | 63% | 1020.9 hPa | 0 mm | - | 41 W/m² | - |
| 1777558956 | 12.22° C | 60% | 1021 hPa | 0 mm | - | 40 W/m² | - |
| 1777558652 | 12.22° C | 60% | 1020.8 hPa | 0 mm | - | 40 W/m² | - |
| 1777558347 | 11.67° C | 61% | 1020.9 hPa | 0 mm | - | 39 W/m² | - |
| 1777558044 | 11.67° C | 61% | 1020.9 hPa | 0 mm | - | 36 W/m² | - |
| 1777557740 | 11.67° C | 60% | 1020.9 hPa | 0 mm | - | 33 W/m² | - |
* Rain latest hour (hover to see other rain measurements)
** Current wind speed in m/s (hover to see current wind gust speed)